sensor_id;sensor_type;location;lat;lon;timestamp;P1;durP1;ratioP1;P2;durP2;ratioP2
64052;SDS011;50299;49.524;8.536;2022-07-23T00:01:19;8.80;;;8.00;;
64052;SDS011;50299;49.524;8.536;2022-07-23T00:03:53;11.15;;;8.50;;
64052;SDS011;50299;49.524;8.536;2022-07-23T00:06:21;9.52;;;8.50;;
64052;SDS011;50299;49.524;8.536;2022-07-23T00:08:48;9.32;;;8.45;;
64052;SDS011;50299;49.524;8.536;2022-07-23T00:11:14;10.38;;;8.13;;
64052;SDS011;50299;49.524;8.536;2022-07-23T00:13:41;9.38;;;8.38;;
64052;SDS011;50299;49.524;8.536;2022-07-23T00:16:08;10.80;;;8.30;;
64052;SDS011;50299;49.524;8.536;2022-07-23T00:18:34;8.68;;;7.70;;
64052;SDS011;50299;49.524;8.536;2022-07-23T00:21:01;9.90;;;7.43;;
64052;SDS011;50299;49.524;8.536;2022-07-23T00:23:28;10.02;;;7.72;;
64052;SDS011;50299;49.524;8.536;2022-07-23T00:25:55;8.45;;;7.65;;
64052;SDS011;50299;49.524;8.536;2022-07-23T00:28:21;7.32;;;6.63;;
64052;SDS011;50299;49.524;8.536;2022-07-23T00:30:48;8.52;;;7.57;;
64052;SDS011;50299;49.524;8.536;2022-07-23T00:33:14;8.07;;;7.38;;
64052;SDS011;50299;49.524;8.536;2022-07-23T00:35:41;8.00;;;7.25;;
64052;SDS011;50299;49.524;8.536;2022-07-23T00:38:09;8.02;;;7.05;;
64052;SDS011;50299;49.524;8.536;2022-07-23T00:40:36;8.23;;;7.35;;
64052;SDS011;50299;49.524;8.536;2022-07-23T00:43:04;8.15;;;7.45;;
64052;SDS011;50299;49.524;8.536;2022-07-23T00:45:31;7.90;;;7.10;;
64052;SDS011;50299;49.524;8.536;2022-07-23T00:47:58;9.05;;;7.18;;
64052;SDS011;50299;49.524;8.536;2022-07-23T00:50:25;7.70;;;6.78;;
64052;SDS011;50299;49.524;8.536;2022-07-23T00:52:51;8.38;;;7.57;;
64052;SDS011;50299;49.524;8.536;2022-07-23T00:55:18;8.88;;;6.65;;
64052;SDS011;50299;49.524;8.536;2022-07-23T00:57:45;7.03;;;6.32;;
64052;SDS011;50299;49.524;8.536;2022-07-23T01:00:13;7.72;;;7.03;;
64052;SDS011;50299;49.524;8.536;2022-07-23T01:02:40;8.68;;;7.97;;
64052;SDS011;50299;49.524;8.536;2022-07-23T01:05:08;7.18;;;6.45;;
64052;SDS011;50299;49.524;8.536;2022-07-23T01:07:35;9.52;;;6.78;;
64052;SDS011;50299;49.524;8.536;2022-07-23T01:10:02;8.52;;;7.25;;
64052;SDS011;50299;49.524;8.536;2022-07-23T01:12:30;7.90;;;6.18;;
64052;SDS011;50299;49.524;8.536;2022-07-23T01:14:57;8.48;;;6.45;;
64052;SDS011;50299;49.524;8.536;2022-07-23T01:17:24;9.30;;;6.47;;
64052;SDS011;50299;49.524;8.536;2022-07-23T01:19:51;7.07;;;6.38;;
64052;SDS011;50299;49.524;8.536;2022-07-23T01:22:18;8.45;;;6.93;;
64052;SDS011;50299;49.524;8.536;2022-07-23T01:24:45;7.07;;;6.32;;
64052;SDS011;50299;49.524;8.536;2022-07-23T01:27:12;7.45;;;6.05;;
64052;SDS011;50299;49.524;8.536;2022-07-23T01:29:39;7.25;;;6.65;;
64052;SDS011;50299;49.524;8.536;2022-07-23T01:32:05;6.95;;;6.35;;
64052;SDS011;50299;49.524;8.536;2022-07-23T01:34:32;6.97;;;6.35;;
64052;SDS011;50299;49.524;8.536;2022-07-23T01:36:59;6.68;;;6.07;;
64052;SDS011;50299;49.524;8.536;2022-07-23T01:39:25;6.82;;;6.22;;
64052;SDS011;50299;49.524;8.536;2022-07-23T01:41:52;7.10;;;6.43;;
64052;SDS011;50299;49.524;8.536;2022-07-23T01:44:18;7.78;;;7.07;;
64052;SDS011;50299;49.524;8.536;2022-07-23T01:46:45;8.60;;;6.15;;
64052;SDS011;50299;49.524;8.536;2022-07-23T01:49:11;8.57;;;6.35;;
64052;SDS011;50299;49.524;8.536;2022-07-23T01:51:38;6.65;;;6.05;;
64052;SDS011;50299;49.524;8.536;2022-07-23T01:54:24;7.28;;;6.57;;
64052;SDS011;50299;49.524;8.536;2022-07-23T01:56:58;6.72;;;6.13;;
64052;SDS011;50299;49.524;8.536;2022-07-23T01:59:26;8.80;;;6.78;;
64052;SDS011;50299;49.524;8.536;2022-07-23T02:01:53;8.32;;;6.55;;
64052;SDS011;50299;49.524;8.536;2022-07-23T02:04:20;7.13;;;6.30;;
64052;SDS011;50299;49.524;8.536;2022-07-23T02:06:47;7.82;;;6.65;;
64052;SDS011;50299;49.524;8.536;2022-07-23T02:09:15;8.68;;;6.55;;
64052;SDS011;50299;49.524;8.536;2022-07-23T02:11:42;6.95;;;6.18;;
64052;SDS011;50299;49.524;8.536;2022-07-23T02:14:08;9.07;;;6.25;;
64052;SDS011;50299;49.524;8.536;2022-07-23T02:16:35;6.93;;;6.22;;
64052;SDS011;50299;49.524;8.536;2022-07-23T02:19:02;7.20;;;6.57;;
64052;SDS011;50299;49.524;8.536;2022-07-23T02:21:30;7.43;;;6.70;;
64052;SDS011;50299;49.524;8.536;2022-07-23T02:23:56;7.78;;;7.07;;
64052;SDS011;50299;49.524;8.536;2022-07-23T02:26:23;7.38;;;6.68;;
64052;SDS011;50299;49.524;8.536;2022-07-23T02:28:49;6.80;;;6.20;;
64052;SDS011;50299;49.524;8.536;2022-07-23T02:31:15;8.27;;;6.93;;
64052;SDS011;50299;49.524;8.536;2022-07-23T02:33:42;6.90;;;6.20;;
64052;SDS011;50299;49.524;8.536;2022-07-23T02:36:08;7.90;;;7.00;;
64052;SDS011;50299;49.524;8.536;2022-07-23T02:38:35;7.78;;;6.78;;
64052;SDS011;50299;49.524;8.536;2022-07-23T02:41:01;7.32;;;6.60;;
64052;SDS011;50299;49.524;8.536;2022-07-23T02:43:28;7.40;;;6.75;;
64052;SDS011;50299;49.524;8.536;2022-07-23T02:45:54;6.70;;;6.15;;
64052;SDS011;50299;49.524;8.536;2022-07-23T02:48:20;12.15;;;7.45;;
64052;SDS011;50299;49.524;8.536;2022-07-23T02:50:47;7.03;;;6.32;;
64052;SDS011;50299;49.524;8.536;2022-07-23T02:53:14;7.45;;;6.85;;
64052;SDS011;50299;49.524;8.536;2022-07-23T02:55:40;6.35;;;5.75;;
64052;SDS011;50299;49.524;8.536;2022-07-23T02:58:06;7.95;;;6.22;;
64052;SDS011;50299;49.524;8.536;2022-07-23T03:00:33;7.60;;;6.95;;
64052;SDS011;50299;49.524;8.536;2022-07-23T03:02:59;7.22;;;6.22;;
64052;SDS011;50299;49.524;8.536;2022-07-23T03:05:26;6.93;;;6.32;;
64052;SDS011;50299;49.524;8.536;2022-07-23T03:07:52;6.97;;;6.38;;
64052;SDS011;50299;49.524;8.536;2022-07-23T03:10:19;7.03;;;6.43;;
64052;SDS011;50299;49.524;8.536;2022-07-23T03:12:45;6.68;;;6.03;;
64052;SDS011;50299;49.524;8.536;2022-07-23T03:15:11;7.05;;;6.45;;
64052;SDS011;50299;49.524;8.536;2022-07-23T03:17:38;7.50;;;6.53;;
64052;SDS011;50299;49.524;8.536;2022-07-23T03:20:04;7.10;;;6.40;;
64052;SDS011;50299;49.524;8.536;2022-07-23T03:22:31;9.07;;;7.05;;
64052;SDS011;50299;49.524;8.536;2022-07-23T03:24:58;6.80;;;6.22;;
64052;SDS011;50299;49.524;8.536;2022-07-23T03:27:25;7.57;;;6.88;;
64052;SDS011;50299;49.524;8.536;2022-07-23T03:29:52;7.45;;;6.75;;
64052;SDS011;50299;49.524;8.536;2022-07-23T03:32:20;7.32;;;6.40;;
64052;SDS011;50299;49.524;8.536;2022-07-23T03:34:47;6.72;;;6.13;;
64052;SDS011;50299;49.524;8.536;2022-07-23T03:37:14;7.40;;;6.68;;
64052;SDS011;50299;49.524;8.536;2022-07-23T03:39:42;7.25;;;6.55;;
64052;SDS011;50299;49.524;8.536;2022-07-23T03:42:09;7.35;;;6.70;;
64052;SDS011;50299;49.524;8.536;2022-07-23T03:44:35;7.05;;;6.45;;
64052;SDS011;50299;49.524;8.536;2022-07-23T03:47:05;7.47;;;6.72;;
64052;SDS011;50299;49.524;8.536;2022-07-23T03:49:32;8.48;;;7.60;;
64052;SDS011;50299;49.524;8.536;2022-07-23T03:51:59;8.50;;;7.18;;
64052;SDS011;50299;49.524;8.536;2022-07-23T03:54:25;8.02;;;7.32;;
64052;SDS011;50299;49.524;8.536;2022-07-23T03:56:52;7.82;;;7.13;;
64052;SDS011;50299;49.524;8.536;2022-07-23T03:59:19;8.20;;;7.40;;
64052;SDS011;50299;49.524;8.536;2022-07-23T04:01:49;8.63;;;7.82;;
64052;SDS011;50299;49.524;8.536;2022-07-23T04:04:15;7.63;;;6.85;;
64052;SDS011;50299;49.524;8.536;2022-07-23T04:06:42;7.95;;;7.25;;
64052;SDS011;50299;49.524;8.536;2022-07-23T04:09:08;8.93;;;7.63;;
64052;SDS011;50299;49.524;8.536;2022-07-23T04:11:35;7.90;;;7.13;;
64052;SDS011;50299;49.524;8.536;2022-07-23T04:14:01;7.93;;;7.10;;
64052;SDS011;50299;49.524;8.536;2022-07-23T04:16:28;7.97;;;7.22;;
64052;SDS011;50299;49.524;8.536;2022-07-23T04:18:54;9.35;;;8.45;;
64052;SDS011;50299;49.524;8.536;2022-07-23T04:21:21;7.97;;;7.28;;
64052;SDS011;50299;49.524;8.536;2022-07-23T04:23:47;10.00;;;7.10;;
64052;SDS011;50299;49.524;8.536;2022-07-23T04:26:14;9.30;;;8.40;;
64052;SDS011;50299;49.524;8.536;2022-07-23T04:28:43;8.73;;;7.93;;
64052;SDS011;50299;49.524;8.536;2022-07-23T04:31:09;8.77;;;7.90;;
64052;SDS011;50299;49.524;8.536;2022-07-23T04:33:36;9.30;;;8.40;;
64052;SDS011;50299;49.524;8.536;2022-07-23T04:36:03;9.93;;;8.60;;
64052;SDS011;50299;49.524;8.536;2022-07-23T04:38:29;10.38;;;8.52;;
64052;SDS011;50299;49.524;8.536;2022-07-23T04:40:56;9.80;;;8.80;;
64052;SDS011;50299;49.524;8.536;2022-07-23T04:43:22;9.15;;;8.25;;
64052;SDS011;50299;49.524;8.536;2022-07-23T04:45:49;10.48;;;9.50;;
64052;SDS011;50299;49.524;8.536;2022-07-23T04:48:15;11.18;;;9.88;;
64052;SDS011;50299;49.524;8.536;2022-07-23T04:50:42;12.85;;;10.68;;
64052;SDS011;50299;49.524;8.536;2022-07-23T04:53:09;12.70;;;10.90;;
64052;SDS011;50299;49.524;8.536;2022-07-23T04:55:35;12.25;;;10.93;;
64052;SDS011;50299;49.524;8.536;2022-07-23T04:58:02;11.77;;;10.60;;
64052;SDS011;50299;49.524;8.536;2022-07-23T05:00:28;12.50;;;11.13;;
64052;SDS011;50299;49.524;8.536;2022-07-23T05:02:54;13.57;;;12.15;;
64052;SDS011;50299;49.524;8.536;2022-07-23T05:05:21;14.55;;;12.98;;
64052;SDS011;50299;49.524;8.536;2022-07-23T05:07:47;13.82;;;12.48;;
64052;SDS011;50299;49.524;8.536;2022-07-23T05:10:14;13.57;;;12.13;;
64052;SDS011;50299;49.524;8.536;2022-07-23T05:12:40;14.52;;;12.40;;
64052;SDS011;50299;49.524;8.536;2022-07-23T05:15:07;14.90;;;13.02;;
64052;SDS011;50299;49.524;8.536;2022-07-23T05:17:33;13.52;;;12.23;;
64052;SDS011;50299;49.524;8.536;2022-07-23T05:20:00;14.57;;;12.95;;
64052;SDS011;50299;49.524;8.536;2022-07-23T05:22:27;14.20;;;12.57;;
64052;SDS011;50299;49.524;8.536;2022-07-23T05:24:53;14.88;;;13.00;;
64052;SDS011;50299;49.524;8.536;2022-07-23T05:27:20;14.98;;;12.82;;
64052;SDS011;50299;49.524;8.536;2022-07-23T05:29:46;15.48;;;13.68;;
64052;SDS011;50299;49.524;8.536;2022-07-23T05:32:12;17.77;;;14.10;;
64052;SDS011;50299;49.524;8.536;2022-07-23T05:34:39;18.23;;;14.35;;
64052;SDS011;50299;49.524;8.536;2022-07-23T05:37:05;17.20;;;14.65;;
64052;SDS011;50299;49.524;8.536;2022-07-23T05:39:32;19.10;;;15.25;;
64052;SDS011;50299;49.524;8.536;2022-07-23T05:41:58;17.30;;;13.60;;
64052;SDS011;50299;49.524;8.536;2022-07-23T05:44:25;18.88;;;14.07;;
64052;SDS011;50299;49.524;8.536;2022-07-23T05:47:00;18.48;;;14.32;;
64052;SDS011;50299;49.524;8.536;2022-07-23T05:49:26;16.92;;;14.27;;
64052;SDS011;50299;49.524;8.536;2022-07-23T05:51:53;17.88;;;14.32;;
64052;SDS011;50299;49.524;8.536;2022-07-23T05:54:19;18.95;;;15.55;;
64052;SDS011;50299;49.524;8.536;2022-07-23T05:56:46;17.95;;;14.93;;
64052;SDS011;50299;49.524;8.536;2022-07-23T05:59:12;20.48;;;16.15;;
64052;SDS011;50299;49.524;8.536;2022-07-23T06:01:39;17.65;;;14.90;;
64052;SDS011;50299;49.524;8.536;2022-07-23T06:04:06;22.55;;;15.05;;
64052;SDS011;50299;49.524;8.536;2022-07-23T06:06:33;17.55;;;14.60;;
64052;SDS011;50299;49.524;8.536;2022-07-23T06:08:59;17.13;;;14.85;;
64052;SDS011;50299;49.524;8.536;2022-07-23T06:11:26;18.73;;;15.70;;
64052;SDS011;50299;49.524;8.536;2022-07-23T06:13:53;18.25;;;14.60;;
64052;SDS011;50299;49.524;8.536;2022-07-23T06:16:19;19.23;;;15.45;;
64052;SDS011;50299;49.524;8.536;2022-07-23T06:18:46;16.17;;;14.48;;
64052;SDS011;50299;49.524;8.536;2022-07-23T06:21:12;15.77;;;14.00;;
64052;SDS011;50299;49.524;8.536;2022-07-23T06:23:58;14.75;;;13.27;;
64052;SDS011;50299;49.524;8.536;2022-07-23T06:26:25;23.05;;;16.98;;
64052;SDS011;50299;49.524;8.536;2022-07-23T06:28:51;14.82;;;13.23;;
64052;SDS011;50299;49.524;8.536;2022-07-23T06:31:18;16.13;;;13.00;;
64052;SDS011;50299;49.524;8.536;2022-07-23T06:33:44;13.52;;;12.13;;
64052;SDS011;50299;49.524;8.536;2022-07-23T06:36:11;12.55;;;10.93;;
64052;SDS011;50299;49.524;8.536;2022-07-23T06:38:40;13.55;;;11.35;;
64052;SDS011;50299;49.524;8.536;2022-07-23T06:41:07;14.60;;;11.38;;
64052;SDS011;50299;49.524;8.536;2022-07-23T06:43:33;12.88;;;10.98;;
64052;SDS011;50299;49.524;8.536;2022-07-23T06:46:00;11.88;;;10.73;;
64052;SDS011;50299;49.524;8.536;2022-07-23T06:48:26;13.85;;;10.73;;
64052;SDS011;50299;49.524;8.536;2022-07-23T06:50:53;12.32;;;10.65;;
64052;SDS011;50299;49.524;8.536;2022-07-23T06:53:19;12.55;;;11.25;;
64052;SDS011;50299;49.524;8.536;2022-07-23T06:55:46;13.45;;;12.10;;
64052;SDS011;50299;49.524;8.536;2022-07-23T06:58:13;13.88;;;11.52;;
64052;SDS011;50299;49.524;8.536;2022-07-23T07:00:40;12.20;;;11.00;;
64052;SDS011;50299;49.524;8.536;2022-07-23T07:03:06;12.70;;;11.43;;
64052;SDS011;50299;49.524;8.536;2022-07-23T07:05:33;25.85;;;13.13;;
64052;SDS011;50299;49.524;8.536;2022-07-23T07:07:59;33.58;;;14.30;;
64052;SDS011;50299;49.524;8.536;2022-07-23T07:10:26;13.88;;;12.43;;
64052;SDS011;50299;49.524;8.536;2022-07-23T07:12:52;13.38;;;11.50;;
64052;SDS011;50299;49.524;8.536;2022-07-23T07:15:19;13.70;;;11.93;;
64052;SDS011;50299;49.524;8.536;2022-07-23T07:17:45;17.63;;;11.40;;
64052;SDS011;50299;49.524;8.536;2022-07-23T07:20:12;11.60;;;10.50;;
64052;SDS011;50299;49.524;8.536;2022-07-23T07:22:38;12.98;;;11.07;;
64052;SDS011;50299;49.524;8.536;2022-07-23T07:25:05;12.38;;;10.93;;
64052;SDS011;50299;49.524;8.536;2022-07-23T07:27:33;12.68;;;11.45;;
64052;SDS011;50299;49.524;8.536;2022-07-23T07:29:59;13.15;;;10.90;;
64052;SDS011;50299;49.524;8.536;2022-07-23T07:32:26;10.60;;;9.60;;
64052;SDS011;50299;49.524;8.536;2022-07-23T07:35:12;13.07;;;10.80;;
64052;SDS011;50299;49.524;8.536;2022-07-23T07:37:39;10.95;;;9.95;;
64052;SDS011;50299;49.524;8.536;2022-07-23T07:40:05;10.82;;;9.73;;
64052;SDS011;50299;49.524;8.536;2022-07-23T07:42:32;11.57;;;10.38;;
64052;SDS011;50299;49.524;8.536;2022-07-23T07:44:59;10.82;;;9.65;;
64052;SDS011;50299;49.524;8.536;2022-07-23T07:47:25;9.80;;;8.90;;
64052;SDS011;50299;49.524;8.536;2022-07-23T07:49:52;11.68;;;9.23;;
64052;SDS011;50299;49.524;8.536;2022-07-23T07:52:18;9.75;;;8.73;;
64052;SDS011;50299;49.524;8.536;2022-07-23T07:54:45;9.82;;;8.82;;
64052;SDS011;50299;49.524;8.536;2022-07-23T07:57:11;11.23;;;8.48;;
64052;SDS011;50299;49.524;8.536;2022-07-23T07:59:37;9.45;;;8.10;;
64052;SDS011;50299;49.524;8.536;2022-07-23T08:02:04;8.77;;;7.97;;
64052;SDS011;50299;49.524;8.536;2022-07-23T08:04:30;8.32;;;7.53;;
64052;SDS011;50299;49.524;8.536;2022-07-23T08:06:57;8.32;;;7.57;;
64052;SDS011;50299;49.524;8.536;2022-07-23T08:09:23;9.88;;;6.75;;
64052;SDS011;50299;49.524;8.536;2022-07-23T08:11:50;8.13;;;7.32;;
64052;SDS011;50299;49.524;8.536;2022-07-23T08:14:18;9.35;;;7.18;;
64052;SDS011;50299;49.524;8.536;2022-07-23T08:16:44;8.77;;;7.97;;
64052;SDS011;50299;49.524;8.536;2022-07-23T08:19:31;8.32;;;7.53;;
64052;SDS011;50299;49.524;8.536;2022-07-23T08:21:57;7.50;;;6.80;;
64052;SDS011;50299;49.524;8.536;2022-07-23T08:24:24;7.80;;;7.00;;
64052;SDS011;50299;49.524;8.536;2022-07-23T08:26:50;7.82;;;7.13;;
64052;SDS011;50299;49.524;8.536;2022-07-23T08:29:16;8.43;;;7.63;;
64052;SDS011;50299;49.524;8.536;2022-07-23T08:31:43;9.73;;;8.43;;
64052;SDS011;50299;49.524;8.536;2022-07-23T08:34:11;7.97;;;7.28;;
64052;SDS011;50299;49.524;8.536;2022-07-23T08:36:38;7.90;;;7.20;;
64052;SDS011;50299;49.524;8.536;2022-07-23T08:39:04;8.20;;;7.40;;
64052;SDS011;50299;49.524;8.536;2022-07-23T08:41:30;8.75;;;7.22;;
64052;SDS011;50299;49.524;8.536;2022-07-23T08:43:57;10.40;;;7.53;;
64052;SDS011;50299;49.524;8.536;2022-07-23T08:46:27;7.93;;;7.13;;
64052;SDS011;50299;49.524;8.536;2022-07-23T08:48:54;8.13;;;7.40;;
64052;SDS011;50299;49.524;8.536;2022-07-23T08:51:21;8.23;;;7.35;;
64052;SDS011;50299;49.524;8.536;2022-07-23T08:53:55;8.07;;;7.38;;
64052;SDS011;50299;49.524;8.536;2022-07-23T08:56:22;8.40;;;7.25;;
64052;SDS011;50299;49.524;8.536;2022-07-23T08:58:49;7.32;;;6.63;;
64052;SDS011;50299;49.524;8.536;2022-07-23T09:01:15;11.55;;;7.28;;
64052;SDS011;50299;49.524;8.536;2022-07-23T09:03:42;8.55;;;7.35;;
64052;SDS011;50299;49.524;8.536;2022-07-23T09:06:11;7.63;;;6.93;;
64052;SDS011;50299;49.524;8.536;2022-07-23T09:08:38;9.32;;;8.02;;
64052;SDS011;50299;49.524;8.536;2022-07-23T09:13:39;8.05;;;7.30;;
64052;SDS011;50299;49.524;8.536;2022-07-23T09:16:10;7.18;;;6.57;;
64052;SDS011;50299;49.524;8.536;2022-07-23T09:18:44;8.38;;;7.68;;
64052;SDS011;50299;49.524;8.536;2022-07-23T09:21:34;7.80;;;7.00;;
64052;SDS011;50299;49.524;8.536;2022-07-23T09:24:05;8.40;;;7.65;;
64052;SDS011;50299;49.524;8.536;2022-07-23T09:31:42;7.47;;;6.78;;
64052;SDS011;50299;49.524;8.536;2022-07-23T09:34:21;7.47;;;6.88;;
64052;SDS011;50299;49.524;8.536;2022-07-23T09:36:55;8.20;;;7.53;;
64052;SDS011;50299;49.524;8.536;2022-07-23T09:39:26;10.50;;;7.75;;
64052;SDS011;50299;49.524;8.536;2022-07-23T09:41:56;8.90;;;7.35;;
64052;SDS011;50299;49.524;8.536;2022-07-23T09:44:24;7.63;;;6.72;;
64052;SDS011;50299;49.524;8.536;2022-07-23T09:46:57;7.88;;;7.07;;
64052;SDS011;50299;49.524;8.536;2022-07-23T09:49:24;8.10;;;7.05;;
64052;SDS011;50299;49.524;8.536;2022-07-23T09:54:21;7.93;;;7.20;;
64052;SDS011;50299;49.524;8.536;2022-07-23T09:57:07;7.60;;;7.00;;
64052;SDS011;50299;49.524;8.536;2022-07-23T09:59:38;9.88;;;9.02;;
64052;SDS011;50299;49.524;8.536;2022-07-23T10:02:05;8.95;;;8.15;;
64052;SDS011;50299;49.524;8.536;2022-07-23T10:04:35;11.02;;;7.40;;
64052;SDS011;50299;49.524;8.536;2022-07-23T10:09:34;8.15;;;7.35;;
64052;SDS011;50299;49.524;8.536;2022-07-23T10:12:03;9.38;;;8.57;;
64052;SDS011;50299;49.524;8.536;2022-07-23T10:14:42;9.30;;;8.45;;
64052;SDS011;50299;49.524;8.536;2022-07-23T10:17:09;8.52;;;7.60;;
64052;SDS011;50299;49.524;8.536;2022-07-23T10:19:36;8.55;;;7.80;;
64052;SDS011;50299;49.524;8.536;2022-07-23T10:24:47;7.05;;;6.45;;
64052;SDS011;50299;49.524;8.536;2022-07-23T10:36:02;8.13;;;7.32;;
64052;SDS011;50299;49.524;8.536;2022-07-23T10:38:42;7.03;;;6.43;;
64052;SDS011;50299;49.524;8.536;2022-07-23T10:41:34;8.93;;;8.13;;
64052;SDS011;50299;49.524;8.536;2022-07-23T10:44:06;8.77;;;7.93;;
64052;SDS011;50299;49.524;8.536;2022-07-23T10:46:35;8.30;;;7.57;;
64052;SDS011;50299;49.524;8.536;2022-07-23T10:49:22;9.88;;;8.88;;
64052;SDS011;50299;49.524;8.536;2022-07-23T10:54:41;8.65;;;7.85;;
64052;SDS011;50299;49.524;8.536;2022-07-23T10:57:08;9.00;;;8.20;;
64052;SDS011;50299;49.524;8.536;2022-07-23T11:02:41;7.05;;;6.50;;
64052;SDS011;50299;49.524;8.536;2022-07-23T11:05:10;6.38;;;5.78;;
64052;SDS011;50299;49.524;8.536;2022-07-23T11:31:59;9.65;;;7.13;;
64052;SDS011;50299;49.524;8.536;2022-07-23T11:34:32;7.10;;;6.43;;
64052;SDS011;50299;49.524;8.536;2022-07-23T11:37:07;11.82;;;7.90;;
64052;SDS011;50299;49.524;8.536;2022-07-23T11:39:35;7.97;;;6.57;;
64052;SDS011;50299;49.524;8.536;2022-07-23T11:42:03;7.78;;;7.10;;
64052;SDS011;50299;49.524;8.536;2022-07-23T11:44:38;7.18;;;6.40;;
64052;SDS011;50299;49.524;8.536;2022-07-23T11:47:06;8.45;;;7.43;;
64052;SDS011;50299;49.524;8.536;2022-07-23T11:49:34;7.55;;;6.85;;
64052;SDS011;50299;49.524;8.536;2022-07-23T11:52:08;8.80;;;6.75;;
64052;SDS011;50299;49.524;8.536;2022-07-23T11:54:46;7.00;;;6.43;;
64052;SDS011;50299;49.524;8.536;2022-07-23T11:57:14;7.63;;;6.97;;
64052;SDS011;50299;49.524;8.536;2022-07-23T11:59:41;22.38;;;8.40;;
64052;SDS011;50299;49.524;8.536;2022-07-23T12:07:28;7.78;;;7.05;;
64052;SDS011;50299;49.524;8.536;2022-07-23T12:10:22;7.53;;;6.93;;
64052;SDS011;50299;49.524;8.536;2022-07-23T12:12:49;8.40;;;7.55;;
64052;SDS011;50299;49.524;8.536;2022-07-23T12:15:19;8.95;;;8.18;;
64052;SDS011;50299;49.524;8.536;2022-07-23T12:17:48;8.18;;;7.50;;
64052;SDS011;50299;49.524;8.536;2022-07-23T12:20:27;8.82;;;8.00;;
64052;SDS011;50299;49.524;8.536;2022-07-23T12:22:56;7.90;;;7.15;;
64052;SDS011;50299;49.524;8.536;2022-07-23T12:25:26;7.97;;;7.18;;
64052;SDS011;50299;49.524;8.536;2022-07-23T12:30:44;7.90;;;7.28;;
64052;SDS011;50299;49.524;8.536;2022-07-23T12:33:23;8.63;;;7.82;;
64052;SDS011;50299;49.524;8.536;2022-07-23T12:35:55;8.43;;;7.60;;
64052;SDS011;50299;49.524;8.536;2022-07-23T12:38:24;8.15;;;7.55;;
64052;SDS011;50299;49.524;8.536;2022-07-23T12:40:58;9.00;;;8.13;;
64052;SDS011;50299;49.524;8.536;2022-07-23T12:51:04;9.32;;;8.52;;
64052;SDS011;50299;49.524;8.536;2022-07-23T12:53:42;8.63;;;7.82;;
64052;SDS011;50299;49.524;8.536;2022-07-23T12:56:13;8.88;;;7.90;;
64052;SDS011;50299;49.524;8.536;2022-07-23T12:58:49;8.57;;;7.78;;
64052;SDS011;50299;49.524;8.536;2022-07-23T13:06:44;8.43;;;7.55;;
64052;SDS011;50299;49.524;8.536;2022-07-23T13:09:13;8.15;;;7.32;;
64052;SDS011;50299;49.524;8.536;2022-07-23T13:11:44;8.63;;;7.85;;
64052;SDS011;50299;49.524;8.536;2022-07-23T13:14:32;8.27;;;7.47;;
64052;SDS011;50299;49.524;8.536;2022-07-23T13:16:58;7.88;;;7.18;;
64052;SDS011;50299;49.524;8.536;2022-07-23T13:19:25;7.75;;;7.13;;
64052;SDS011;50299;49.524;8.536;2022-07-23T13:21:53;8.57;;;7.88;;
64052;SDS011;50299;49.524;8.536;2022-07-23T13:24:19;7.97;;;7.25;;
64052;SDS011;50299;49.524;8.536;2022-07-23T13:26:47;7.53;;;6.93;;
64052;SDS011;50299;49.524;8.536;2022-07-23T13:29:15;7.78;;;7.03;;
64052;SDS011;50299;49.524;8.536;2022-07-23T13:31:43;7.40;;;6.80;;
64052;SDS011;50299;49.524;8.536;2022-07-23T13:34:11;7.95;;;7.25;;
64052;SDS011;50299;49.524;8.536;2022-07-23T13:36:38;7.20;;;6.53;;
64052;SDS011;50299;49.524;8.536;2022-07-23T13:39:05;7.70;;;7.10;;
64052;SDS011;50299;49.524;8.536;2022-07-23T13:41:35;9.30;;;8.50;;
64052;SDS011;50299;49.524;8.536;2022-07-23T13:44:03;8.30;;;7.70;;
64052;SDS011;50299;49.524;8.536;2022-07-23T13:46:30;8.00;;;7.30;;
64052;SDS011;50299;49.524;8.536;2022-07-23T13:48:57;7.78;;;7.18;;
64052;SDS011;50299;49.524;8.536;2022-07-23T13:51:25;7.93;;;7.13;;
64052;SDS011;50299;49.524;8.536;2022-07-23T13:53:54;7.60;;;7.00;;
64052;SDS011;50299;49.524;8.536;2022-07-23T13:56:20;7.50;;;6.90;;
64052;SDS011;50299;49.524;8.536;2022-07-23T13:58:47;8.18;;;7.40;;
64052;SDS011;50299;49.524;8.536;2022-07-23T14:01:14;7.43;;;6.82;;
64052;SDS011;50299;49.524;8.536;2022-07-23T14:03:40;8.07;;;7.38;;
64052;SDS011;50299;49.524;8.536;2022-07-23T14:06:07;7.80;;;7.10;;
64052;SDS011;50299;49.524;8.536;2022-07-23T14:13:36;7.65;;;7.05;;
64052;SDS011;50299;49.524;8.536;2022-07-23T14:16:02;7.55;;;6.82;;
64052;SDS011;50299;49.524;8.536;2022-07-23T14:18:29;8.05;;;7.35;;
64052;SDS011;50299;49.524;8.536;2022-07-23T14:20:59;7.43;;;6.82;;
64052;SDS011;50299;49.524;8.536;2022-07-23T14:23:25;7.50;;;6.80;;
64052;SDS011;50299;49.524;8.536;2022-07-23T14:25:52;7.32;;;6.68;;
64052;SDS011;50299;49.524;8.536;2022-07-23T14:28:19;7.63;;;6.93;;
64052;SDS011;50299;49.524;8.536;2022-07-23T14:30:46;7.75;;;7.05;;
64052;SDS011;50299;49.524;8.536;2022-07-23T14:33:12;7.82;;;7.13;;
64052;SDS011;50299;49.524;8.536;2022-07-23T14:35:41;7.25;;;6.65;;
64052;SDS011;50299;49.524;8.536;2022-07-23T14:38:08;7.35;;;6.75;;
64052;SDS011;50299;49.524;8.536;2022-07-23T14:40:34;7.05;;;6.45;;
64052;SDS011;50299;49.524;8.536;2022-07-23T14:43:00;7.50;;;6.88;;
64052;SDS011;50299;49.524;8.536;2022-07-23T14:45:27;7.53;;;6.90;;
64052;SDS011;50299;49.524;8.536;2022-07-23T14:47:56;6.75;;;6.25;;
64052;SDS011;50299;49.524;8.536;2022-07-23T14:50:23;7.53;;;6.65;;
64052;SDS011;50299;49.524;8.536;2022-07-23T14:52:50;7.25;;;6.65;;
64052;SDS011;50299;49.524;8.536;2022-07-23T14:55:17;7.68;;;7.03;;
64052;SDS011;50299;49.524;8.536;2022-07-23T14:57:44;8.18;;;7.53;;
64052;SDS011;50299;49.524;8.536;2022-07-23T15:00:11;7.28;;;6.68;;
64052;SDS011;50299;49.524;8.536;2022-07-23T15:02:40;7.65;;;6.95;;
64052;SDS011;50299;49.524;8.536;2022-07-23T15:05:07;7.47;;;6.88;;
64052;SDS011;50299;49.524;8.536;2022-07-23T15:07:34;8.88;;;6.75;;
64052;SDS011;50299;49.524;8.536;2022-07-23T15:10:00;6.70;;;6.20;;
64052;SDS011;50299;49.524;8.536;2022-07-23T15:12:28;6.90;;;6.40;;
64052;SDS011;50299;49.524;8.536;2022-07-23T15:14:54;6.95;;;6.45;;
64052;SDS011;50299;49.524;8.536;2022-07-23T15:17:21;7.72;;;6.95;;
64052;SDS011;50299;49.524;8.536;2022-07-23T15:19:47;8.48;;;7.80;;
64052;SDS011;50299;49.524;8.536;2022-07-23T15:22:15;7.53;;;6.93;;
64052;SDS011;50299;49.524;8.536;2022-07-23T15:24:41;7.75;;;7.03;;
64052;SDS011;50299;49.524;8.536;2022-07-23T15:27:08;7.70;;;6.65;;
64052;SDS011;50299;49.524;8.536;2022-07-23T15:29:34;8.43;;;7.07;;
64052;SDS011;50299;49.524;8.536;2022-07-23T15:32:01;7.40;;;6.68;;
64052;SDS011;50299;49.524;8.536;2022-07-23T15:34:29;7.15;;;6.45;;
64052;SDS011;50299;49.524;8.536;2022-07-23T15:36:56;7.32;;;6.72;;
64052;SDS011;50299;49.524;8.536;2022-07-23T15:39:28;7.30;;;6.72;;
64052;SDS011;50299;49.524;8.536;2022-07-23T15:41:54;6.65;;;6.10;;
64052;SDS011;50299;49.524;8.536;2022-07-23T15:44:21;7.22;;;6.57;;
64052;SDS011;50299;49.524;8.536;2022-07-23T15:46:55;7.25;;;6.70;;
64052;SDS011;50299;49.524;8.536;2022-07-23T15:49:25;7.13;;;6.45;;
64052;SDS011;50299;49.524;8.536;2022-07-23T15:51:52;7.15;;;6.45;;
64052;SDS011;50299;49.524;8.536;2022-07-23T15:54:21;6.97;;;6.30;;
64052;SDS011;50299;49.524;8.536;2022-07-23T15:56:47;7.28;;;6.57;;
64052;SDS011;50299;49.524;8.536;2022-07-23T15:59:15;7.32;;;6.63;;
64052;SDS011;50299;49.524;8.536;2022-07-23T16:01:41;6.72;;;6.13;;
64052;SDS011;50299;49.524;8.536;2022-07-23T16:04:09;6.78;;;6.18;;
64052;SDS011;50299;49.524;8.536;2022-07-23T16:06:35;6.63;;;6.05;;
64052;SDS011;50299;49.524;8.536;2022-07-23T16:09:03;6.95;;;6.35;;